Strona główna
METAR-TAF:

METAR-TAF

Lotnisko :

Port lotniczy Luksemburg

Luksemburg, Luksemburg

Szerokość geograficzna: 49-37N, Długość geograficzna: 006-13E, wysokość: 376 m

Aktualna obserwacja pogody

Raport powstał 15 minut temu, godzina 04:50 UTC
Wiatr 12 kt od północno-północny wschód
Temperatura 13°C
Wilgotność 77%
Ciśnienie 1030 hPa
Widzialność 10 km lub więcej
Brak chmur poniżej 1500 m i brak chmur cumulonimbus

METAR: ELLX 280450Z 03012KT CAVOK 13/09 Q1030 NOSIG

czas: 07:05 (05:05 UTC)

Prognoza

Raport powstał 6 godziny i 5 minut temu, godzina 23:00 UTC
Prognoza ważna od 28 godzina 00 UTC do 29 godzina 06 UTC
Wiatr 8 kt od północny wschód
Widzialność 10 km lub więcej
Brak chmur poniżej 1500 m i brak chmur cumulonimbus
Przejściowo
od 28 godzina 08 UTC do 28 godzina 16 UTC
Wiatr 15 kt od północny wschód

TAF: ELLX 272300Z 2800/2906 04008KT CAVOK TEMPO 2808/2816 04015KT

Obserwacja i prognoza pogody dla ponad 4000 lotnisk (raport METAR i TAF).

Dostępne stacje oznaczono żółtymi i czerwonymi punktami na mapie.

Najedź kursorem aby zobaczyć nazwę stacji.

Kliknij aby zobaczyć obserwacje i prognozy pogody.

Aby zmienić mapę: kliknij na zielony przycisk z czarnym krzyżykiem, aby powiększyć; na zielony przycisk z myślnikiem, aby pomniejszyć; na zielone strzałki, aby przejść do map sąsiednich.


METAR-TAF: